Terminal Aerodrome Forecast
Issued by NWS

Current Version | Previous Version | Text Only | Print | Product List | Glossary On
Versions: 1 2 3 4 5 6 7 8 9 10 11 12 13 14 15 16 17 18
000
FTUS41 KOKX 012300
TAFSWF
TAF
KSWF 012335Z 0200/0306 VRB03KT P6SM SCT060 BKN100
     FM021000 VRB03KT 5SM -RA BR SCT035 OVC060
     FM021200 08007KT 5SM -RA BR BKN025 OVC050
     FM021900 10006KT P6SM SCT025 BKN050
     FM030000 VRB04KT P6SM SCT050 BKN150
      AMD NOT SKED=

USA.gov is the U.S. government's official web portal to all federal, state and local government web resources and services.